<?xml version="1.0" encoding="UTF-8" standalone="no" ?>
<gpx xmlns="http://www.topografix.com/GPX/1/1" xmlns:xsi="http://www.w3.org/2001/XMLSchema-instance" xsi:schemaLocation="http://www.topografix.com/GPX/1/1 http://www.topografix.com/GPX/1/1/gpx.xsd" version="1.1" creator="VisuGPX - https://www.visugpx.com">
  <metadata>
    <name>ILE DE RE - VTT - Un aller-retour de Sainte Marie en Ré au phare des baleines.</name>
    <desc><![CDATA[Tranquille beaucoup de vélos]]></desc>
  </metadata>
  <wpt lat="46.17257" lon="-1.35693">
    <ele>2.769531</ele>
    <name><![CDATA[001]]></name>
    <desc><![CDATA[18-AOU-14 10:45:34]]></desc>
    <cmt><![CDATA[18-AOU-14 10:45:34]]></cmt>
  </wpt>
  <wpt lat="46.21604" lon="-1.43872">
    <ele>-22.464966</ele>
    <name><![CDATA[002]]></name>
    <desc><![CDATA[20-AOU-14 17:20:46]]></desc>
    <cmt><![CDATA[20-AOU-14 17:20:46]]></cmt>
  </wpt>
  <trk>
    <name><![CDATA[ACTIVE LOG]]></name>
    <trkseg>
      <trkpt lat="46.17261" lon="-1.35691">
        <ele>2.060059</ele>
        <time>2014-08-18T08:45:47Z</time>
      </trkpt>
      <trkpt lat="46.17261" lon="-1.35691">
        <ele>3.501953</ele>
        <time>2014-08-18T08:45:49Z</time>
      </trkpt>
      <trkpt lat="46.17261" lon="-1.35691">
        <ele>3.02124</ele>
        <time>2014-08-18T08:45:50Z</time>
      </trkpt>
      <trkpt lat="46.17262" lon="-1.35695">
        <ele>2.060059</ele>
        <time>2014-08-18T08:46:11Z</time>
      </trkpt>
      <trkpt lat="46.17263" lon="-1.357">
        <ele>3.501953</ele>
        <time>2014-08-18T08:46:14Z</time>
      </trkpt>
      <trkpt lat="46.17264" lon="-1.35702">
        <ele>3.501953</ele>
        <time>2014-08-18T08:46:15Z</time>
      </trkpt>
      <trkpt lat="46.17266" lon="-1.35712">
        <ele>3.501953</ele>
        <time>2014-08-18T08:46:20Z</time>
      </trkpt>
      <trkpt lat="46.17267" lon="-1.35716">
        <ele>3.982666</ele>
        <time>2014-08-18T08:46:22Z</time>
      </trkpt>
      <trkpt lat="46.17269" lon="-1.35724">
        <ele>3.501953</ele>
        <time>2014-08-18T08:46:28Z</time>
      </trkpt>
      <trkpt lat="46.17268" lon="-1.35733">
        <ele>3.501953</ele>
        <time>2014-08-18T08:46:32Z</time>
      </trkpt>
      <trkpt lat="46.17248" lon="-1.3577">
        <ele>3.982666</ele>
        <time>2014-08-18T08:46:47Z</time>
      </trkpt>
      <trkpt lat="46.1722" lon="-1.3579">
        <ele>3.02124</ele>
        <time>2014-08-18T08:47:02Z</time>
      </trkpt>
      <trkpt lat="46.17206" lon="-1.3582">
        <ele>2.540649</ele>
        <time>2014-08-18T08:47:14Z</time>
      </trkpt>
      <trkpt lat="46.17185" lon="-1.35823">
        <ele>2.540649</ele>
        <time>2014-08-18T08:47:26Z</time>
      </trkpt>
      <trkpt lat="46.17142" lon="-1.35784">
        <ele>3.982666</ele>
        <time>2014-08-18T08:47:44Z</time>
      </trkpt>
      <trkpt lat="46.17099" lon="-1.35738">
        <ele>3.501953</ele>
        <time>2014-08-18T08:48:03Z</time>
      </trkpt>
      <trkpt lat="46.17071" lon="-1.35714">
        <ele>2.540649</ele>
        <time>2014-08-18T08:48:18Z</time>
      </trkpt>
      <trkpt lat="46.17021" lon="-1.35708">
        <ele>3.02124</ele>
        <time>2014-08-18T08:48:34Z</time>
      </trkpt>
      <trkpt lat="46.16996" lon="-1.35739">
        <ele>3.02124</ele>
        <time>2014-08-18T08:48:43Z</time>
      </trkpt>
      <trkpt lat="46.16949" lon="-1.35781">
        <ele>3.501953</ele>
        <time>2014-08-18T08:48:58Z</time>
      </trkpt>
      <trkpt lat="46.16933" lon="-1.35792">
        <ele>2.540649</ele>
        <time>2014-08-18T08:49:03Z</time>
      </trkpt>
      <trkpt lat="46.16904" lon="-1.35819">
        <ele>4.463257</ele>
        <time>2014-08-18T08:49:12Z</time>
      </trkpt>
      <trkpt lat="46.16847" lon="-1.35882">
        <ele>1.579346</ele>
        <time>2014-08-18T08:49:30Z</time>
      </trkpt>
      <trkpt lat="46.16804" lon="-1.35928">
        <ele>2.540649</ele>
        <time>2014-08-18T08:49:45Z</time>
      </trkpt>
      <trkpt lat="46.16772" lon="-1.35963">
        <ele>1.579346</ele>
        <time>2014-08-18T08:49:58Z</time>
      </trkpt>
      <trkpt lat="46.16768" lon="-1.35969">
        <ele>2.060059</ele>
        <time>2014-08-18T08:50:00Z</time>
      </trkpt>
      <trkpt lat="46.16784" lon="-1.36012">
        <ele>2.540649</ele>
        <time>2014-08-18T08:50:11Z</time>
      </trkpt>
      <trkpt lat="46.16806" lon="-1.36067">
        <ele>2.060059</ele>
        <time>2014-08-18T08:50:23Z</time>
      </trkpt>
      <trkpt lat="46.16845" lon="-1.36136">
        <ele>2.060059</ele>
        <time>2014-08-18T08:50:40Z</time>
      </trkpt>
      <trkpt lat="46.16895" lon="-1.36193">
        <ele>2.060059</ele>
        <time>2014-08-18T08:50:57Z</time>
      </trkpt>
      <trkpt lat="46.16956" lon="-1.36231">
        <ele>3.02124</ele>
        <time>2014-08-18T08:51:15Z</time>
      </trkpt>
      <trkpt lat="46.17031" lon="-1.36274">
        <ele>3.02124</ele>
        <time>2014-08-18T08:51:39Z</time>
      </trkpt>
      <trkpt lat="46.17076" lon="-1.36301">
        <ele>3.02124</ele>
        <time>2014-08-18T08:51:54Z</time>
      </trkpt>
      <trkpt lat="46.17112" lon="-1.36332">
        <ele>2.540649</ele>
        <time>2014-08-18T08:52:05Z</time>
      </trkpt>
      <trkpt lat="46.17168" lon="-1.36396">
        <ele>0.618042</ele>
        <time>2014-08-18T08:52:20Z</time>
      </trkpt>
      <trkpt lat="46.17242" lon="-1.36469">
        <ele>0.137451</ele>
        <time>2014-08-18T08:52:39Z</time>
      </trkpt>
      <trkpt lat="46.17282" lon="-1.36514">
        <ele>0.618042</ele>
        <time>2014-08-18T08:52:54Z</time>
      </trkpt>
      <trkpt lat="46.17317" lon="-1.36563">
        <ele>1.579346</ele>
        <time>2014-08-18T08:53:08Z</time>
      </trkpt>
      <trkpt lat="46.17354" lon="-1.36618">
        <ele>3.02124</ele>
        <time>2014-08-18T08:53:25Z</time>
      </trkpt>
      <trkpt lat="46.17379" lon="-1.3666">
        <ele>3.982666</ele>
        <time>2014-08-18T08:53:37Z</time>
      </trkpt>
      <trkpt lat="46.17407" lon="-1.36712">
        <ele>3.501953</ele>
        <time>2014-08-18T08:53:52Z</time>
      </trkpt>
      <trkpt lat="46.17436" lon="-1.36748">
        <ele>3.982666</ele>
        <time>2014-08-18T08:54:03Z</time>
      </trkpt>
      <trkpt lat="46.17479" lon="-1.36779">
        <ele>4.463257</ele>
        <time>2014-08-18T08:54:17Z</time>
      </trkpt>
      <trkpt lat="46.17518" lon="-1.36809">
        <ele>4.943848</ele>
        <time>2014-08-18T08:54:30Z</time>
      </trkpt>
      <trkpt lat="46.17564" lon="-1.36854">
        <ele>4.463257</ele>
        <time>2014-08-18T08:54:45Z</time>
      </trkpt>
      <trkpt lat="46.17607" lon="-1.3691">
        <ele>4.463257</ele>
        <time>2014-08-18T08:55:00Z</time>
      </trkpt>
      <trkpt lat="46.17645" lon="-1.36999">
        <ele>3.02124</ele>
        <time>2014-08-18T08:55:17Z</time>
      </trkpt>
      <trkpt lat="46.17662" lon="-1.37016">
        <ele>2.540649</ele>
        <time>2014-08-18T08:55:22Z</time>
      </trkpt>
      <trkpt lat="46.17668" lon="-1.37019">
        <ele>3.02124</ele>
        <time>2014-08-18T08:55:24Z</time>
      </trkpt>
      <trkpt lat="46.1768" lon="-1.37021">
        <ele>3.02124</ele>
        <time>2014-08-18T08:55:28Z</time>
      </trkpt>
      <trkpt lat="46.17735" lon="-1.37047">
        <ele>2.540649</ele>
        <time>2014-08-18T08:55:43Z</time>
      </trkpt>
      <trkpt lat="46.17775" lon="-1.37077">
        <ele>0.137451</ele>
        <time>2014-08-18T08:55:51Z</time>
      </trkpt>
      <trkpt lat="46.17808" lon="-1.37128">
        <ele>-0.343384</ele>
        <time>2014-08-18T08:56:01Z</time>
      </trkpt>
      <trkpt lat="46.1784" lon="-1.3717">
        <ele>1.579346</ele>
        <time>2014-08-18T08:56:14Z</time>
      </trkpt>
      <trkpt lat="46.17857" lon="-1.37203">
        <ele>3.02124</ele>
        <time>2014-08-18T08:56:25Z</time>
      </trkpt>
      <trkpt lat="46.17856" lon="-1.37264">
        <ele>2.540649</ele>
        <time>2014-08-18T08:56:39Z</time>
      </trkpt>
      <trkpt lat="46.1786" lon="-1.37313">
        <ele>2.540649</ele>
        <time>2014-08-18T08:56:49Z</time>
      </trkpt>
      <trkpt lat="46.17859" lon="-1.37326">
        <ele>2.540649</ele>
        <time>2014-08-18T08:56:52Z</time>
      </trkpt>
      <trkpt lat="46.17871" lon="-1.37358">
        <ele>2.540649</ele>
        <time>2014-08-18T08:57:02Z</time>
      </trkpt>
      <trkpt lat="46.17884" lon="-1.37383">
        <ele>2.540649</ele>
        <time>2014-08-18T08:57:13Z</time>
      </trkpt>
      <trkpt lat="46.17892" lon="-1.37386">
        <ele>1.579346</ele>
        <time>2014-08-18T08:57:17Z</time>
      </trkpt>
      <trkpt lat="46.17922" lon="-1.37385">
        <ele>2.060059</ele>
        <time>2014-08-18T08:57:32Z</time>
      </trkpt>
      <trkpt lat="46.17927" lon="-1.37385">
        <ele>2.060059</ele>
        <time>2014-08-18T08:57:34Z</time>
      </trkpt>
      <trkpt lat="46.17935" lon="-1.37405">
        <ele>2.540649</ele>
        <time>2014-08-18T08:57:46Z</time>
      </trkpt>
      <trkpt lat="46.17945" lon="-1.3744">
        <ele>2.060059</ele>
        <time>2014-08-18T08:58:00Z</time>
      </trkpt>
      <trkpt lat="46.17941" lon="-1.37473">
        <ele>0.618042</ele>
        <time>2014-08-18T08:58:08Z</time>
      </trkpt>
      <trkpt lat="46.17938" lon="-1.37485">
        <ele>1.579346</ele>
        <time>2014-08-18T08:58:10Z</time>
      </trkpt>
      <trkpt lat="46.17925" lon="-1.37512">
        <ele>2.060059</ele>
        <time>2014-08-18T08:58:20Z</time>
      </trkpt>
      <trkpt lat="46.17942" lon="-1.37549">
        <ele>1.579346</ele>
        <time>2014-08-18T08:58:31Z</time>
      </trkpt>
      <trkpt lat="46.17968" lon="-1.37563">
        <ele>3.02124</ele>
        <time>2014-08-18T08:58:42Z</time>
      </trkpt>
      <trkpt lat="46.17996" lon="-1.37586">
        <ele>4.463257</ele>
        <time>2014-08-18T08:58:53Z</time>
      </trkpt>
      <trkpt lat="46.18035" lon="-1.37597">
        <ele>4.463257</ele>
        <time>2014-08-18T08:59:03Z</time>
      </trkpt>
      <trkpt lat="46.18039" lon="-1.37599">
        <ele>4.463257</ele>
        <time>2014-08-18T08:59:04Z</time>
      </trkpt>
      <trkpt lat="46.18077" lon="-1.37617">
        <ele>5.424561</ele>
        <time>2014-08-18T08:59:16Z</time>
      </trkpt>
      <trkpt lat="46.18113" lon="-1.37633">
        <ele>4.463257</ele>
        <time>2014-08-18T08:59:25Z</time>
      </trkpt>
      <trkpt lat="46.18125" lon="-1.37637">
        <ele>3.501953</ele>
        <time>2014-08-18T08:59:28Z</time>
      </trkpt>
      <trkpt lat="46.18132" lon="-1.3766">
        <ele>4.463257</ele>
        <time>2014-08-18T08:59:35Z</time>
      </trkpt>
      <trkpt lat="46.18137" lon="-1.37698">
        <ele>3.982666</ele>
        <time>2014-08-18T08:59:47Z</time>
      </trkpt>
      <trkpt lat="46.18146" lon="-1.37741">
        <ele>3.02124</ele>
        <time>2014-08-18T08:59:59Z</time>
      </trkpt>
      <trkpt lat="46.18156" lon="-1.378">
        <ele>3.501953</ele>
        <time>2014-08-18T09:00:12Z</time>
      </trkpt>
      <trkpt lat="46.18165" lon="-1.37843">
        <ele>3.02124</ele>
        <time>2014-08-18T09:00:23Z</time>
      </trkpt>
      <trkpt lat="46.18186" lon="-1.37934">
        <ele>3.02124</ele>
        <time>2014-08-18T09:00:43Z</time>
      </trkpt>
      <trkpt lat="46.18212" lon="-1.38009">
        <ele>3.501953</ele>
        <time>2014-08-18T09:01:01Z</time>
      </trkpt>
      <trkpt lat="46.18256" lon="-1.38053">
        <ele>3.501953</ele>
        <time>2014-08-18T09:01:20Z</time>
      </trkpt>
      <trkpt lat="46.18281" lon="-1.38063">
        <ele>3.02124</ele>
        <time>2014-08-18T09:01:31Z</time>
      </trkpt>
      <trkpt lat="46.18322" lon="-1.38079">
        <ele>3.02124</ele>
        <time>2014-08-18T09:01:43Z</time>
      </trkpt>
      <trkpt lat="46.18326" lon="-1.38081">
        <ele>2.540649</ele>
        <time>2014-08-18T09:01:44Z</time>
      </trkpt>
      <trkpt lat="46.18342" lon="-1.38082">
        <ele>3.501953</ele>
        <time>2014-08-18T09:01:53Z</time>
      </trkpt>
      <trkpt lat="46.18369" lon="-1.38094">
        <ele>3.02124</ele>
        <time>2014-08-18T09:02:03Z</time>
      </trkpt>
      <trkpt lat="46.18403" lon="-1.38122">
        <ele>3.02124</ele>
        <time>2014-08-18T09:02:13Z</time>
      </trkpt>
      <trkpt lat="46.18418" lon="-1.38137">
        <ele>2.060059</ele>
        <time>2014-08-18T09:02:18Z</time>
      </trkpt>
      <trkpt lat="46.18431" lon="-1.38146">
        <ele>1.098633</ele>
        <time>2014-08-18T09:02:21Z</time>
      </trkpt>
      <trkpt lat="46.18467" lon="-1.3818">
        <ele>0.618042</ele>
        <time>2014-08-18T09:02:33Z</time>
      </trkpt>
      <trkpt lat="46.18474" lon="-1.38182">
        <ele>0.137451</ele>
        <time>2014-08-18T09:02:35Z</time>
      </trkpt>
      <trkpt lat="46.18481" lon="-1.38186">
        <ele>-0.824097</ele>
        <time>2014-08-18T09:02:37Z</time>
      </trkpt>
      <trkpt lat="46.1848" lon="-1.38217">
        <ele>0.618042</ele>
        <time>2014-08-18T09:02:43Z</time>
      </trkpt>
      <trkpt lat="46.18439" lon="-1.38282">
        <ele>-0.343384</ele>
        <time>2014-08-18T09:03:00Z</time>
      </trkpt>
      <trkpt lat="46.18405" lon="-1.38332">
        <ele>0.137451</ele>
        <time>2014-08-18T09:03:14Z</time>
      </trkpt>
      <trkpt lat="46.18418" lon="-1.38367">
        <ele>1.579346</ele>
        <time>2014-08-18T09:03:23Z</time>
      </trkpt>
      <trkpt lat="46.18451" lon="-1.38425">
        <ele>0.618042</ele>
        <time>2014-08-18T09:03:39Z</time>
      </trkpt>
      <trkpt lat="46.1847" lon="-1.38447">
        <ele>1.098633</ele>
        <time>2014-08-18T09:03:50Z</time>
      </trkpt>
      <trkpt lat="46.18474" lon="-1.38454">
        <ele>0.618042</ele>
        <time>2014-08-18T09:03:55Z</time>
      </trkpt>
      <trkpt lat="46.18481" lon="-1.38489">
        <ele>1.579346</ele>
        <time>2014-08-18T09:04:07Z</time>
      </trkpt>
      <trkpt lat="46.18491" lon="-1.38503">
        <ele>1.098633</ele>
        <time>2014-08-18T09:04:12Z</time>
      </trkpt>
      <trkpt lat="46.18498" lon="-1.38542">
        <ele>1.098633</ele>
        <time>2014-08-18T09:04:23Z</time>
      </trkpt>
      <trkpt lat="46.18509" lon="-1.38593">
        <ele>1.098633</ele>
        <time>2014-08-18T09:04:37Z</time>
      </trkpt>
      <trkpt lat="46.18508" lon="-1.38666">
        <ele>1.098633</ele>
        <time>2014-08-18T09:04:55Z</time>
      </trkpt>
      <trkpt lat="46.18515" lon="-1.38702">
        <ele>1.098633</ele>
        <time>2014-08-18T09:05:05Z</time>
      </trkpt>
      <trkpt lat="46.18519" lon="-1.38722">
        <ele>1.098633</ele>
        <time>2014-08-18T09:05:12Z</time>
      </trkpt>
      <trkpt lat="46.18558" lon="-1.3873">
        <ele>1.098633</ele>
        <time>2014-08-18T09:05:27Z</time>
      </trkpt>
      <trkpt lat="46.18569" lon="-1.38787">
        <ele>1.579346</ele>
        <time>2014-08-18T09:05:44Z</time>
      </trkpt>
      <trkpt lat="46.18584" lon="-1.38848">
        <ele>1.579346</ele>
        <time>2014-08-18T09:06:02Z</time>
      </trkpt>
      <trkpt lat="46.18592" lon="-1.38892">
        <ele>2.540649</ele>
        <time>2014-08-18T09:06:18Z</time>
      </trkpt>
      <trkpt lat="46.18602" lon="-1.38929">
        <ele>3.02124</ele>
        <time>2014-08-18T09:06:30Z</time>
      </trkpt>
      <trkpt lat="46.18602" lon="-1.38934">
        <ele>2.060059</ele>
        <time>2014-08-18T09:06:33Z</time>
      </trkpt>
      <trkpt lat="46.18591" lon="-1.38946">
        <ele>2.540649</ele>
        <time>2014-08-18T09:06:42Z</time>
      </trkpt>
      <trkpt lat="46.18564" lon="-1.38969">
        <ele>3.501953</ele>
        <time>2014-08-18T09:06:56Z</time>
      </trkpt>
      <trkpt lat="46.18554" lon="-1.38994">
        <ele>3.501953</ele>
        <time>2014-08-18T09:07:08Z</time>
      </trkpt>
      <trkpt lat="46.18548" lon="-1.39063">
        <ele>3.501953</ele>
        <time>2014-08-18T09:07:26Z</time>
      </trkpt>
      <trkpt lat="46.18541" lon="-1.391">
        <ele>3.02124</ele>
        <time>2014-08-18T09:07:37Z</time>
      </trkpt>
      <trkpt lat="46.18543" lon="-1.39104">
        <ele>3.501953</ele>
        <time>2014-08-18T09:07:41Z</time>
      </trkpt>
      <trkpt lat="46.18558" lon="-1.39106">
        <ele>3.02124</ele>
        <time>2014-08-18T09:07:49Z</time>
      </trkpt>
      <trkpt lat="46.18564" lon="-1.39124">
        <ele>2.540649</ele>
        <time>2014-08-18T09:08:01Z</time>
      </trkpt>
      <trkpt lat="46.18567" lon="-1.39127">
        <ele>3.02124</ele>
        <time>2014-08-18T09:08:15Z</time>
      </trkpt>
      <trkpt lat="46.18567" lon="-1.39133">
        <ele>2.540649</ele>
        <time>2014-08-18T09:08:28Z</time>
      </trkpt>
      <trkpt lat="46.18567" lon="-1.39134">
        <ele>3.501953</ele>
        <time>2014-08-18T09:08:47Z</time>
      </trkpt>
      <trkpt lat="46.18567" lon="-1.39134">
        <ele>3.982666</ele>
        <time>2014-08-18T09:09:03Z</time>
      </trkpt>
      <trkpt lat="46.18567" lon="-1.39135">
        <ele>3.501953</ele>
        <time>2014-08-18T09:09:17Z</time>
      </trkpt>
      <trkpt lat="46.18568" lon="-1.39134">
        <ele>3.501953</ele>
        <time>2014-08-18T09:09:31Z</time>
      </trkpt>
      <trkpt lat="46.18567" lon="-1.39134">
        <ele>3.501953</ele>
        <time>2014-08-18T09:09:49Z</time>
      </trkpt>
      <trkpt lat="46.18566" lon="-1.39134">
        <ele>2.540649</ele>
        <time>2014-08-18T09:10:08Z</time>
      </trkpt>
      <trkpt lat="46.18565" lon="-1.39134">
        <ele>2.540649</ele>
        <time>2014-08-18T09:10:26Z</time>
      </trkpt>
      <trkpt lat="46.18565" lon="-1.39135">
        <ele>3.501953</ele>
        <time>2014-08-18T09:10:50Z</time>
      </trkpt>
      <trkpt lat="46.18563" lon="-1.39133">
        <ele>3.02124</ele>
        <time>2014-08-18T09:11:03Z</time>
      </trkpt>
      <trkpt lat="46.18564" lon="-1.39137">
        <ele>4.463257</ele>
        <time>2014-08-18T09:11:18Z</time>
      </trkpt>
      <trkpt lat="46.18562" lon="-1.39154">
        <ele>3.982666</ele>
        <time>2014-08-18T09:11:33Z</time>
      </trkpt>
      <trkpt lat="46.18564" lon="-1.39178">
        <ele>3.982666</ele>
        <time>2014-08-18T09:11:53Z</time>
      </trkpt>
      <trkpt lat="46.1855" lon="-1.39184">
        <ele>3.501953</ele>
        <time>2014-08-18T09:12:09Z</time>
      </trkpt>
      <trkpt lat="46.18546" lon="-1.39201">
        <ele>3.501953</ele>
        <time>2014-08-18T09:12:26Z</time>
      </trkpt>
      <trkpt lat="46.18548" lon="-1.39221">
        <ele>3.982666</ele>
        <time>2014-08-18T09:12:45Z</time>
      </trkpt>
      <trkpt lat="46.18549" lon="-1.39233">
        <ele>3.02124</ele>
        <time>2014-08-18T09:13:00Z</time>
      </trkpt>
      <trkpt lat="46.1855" lon="-1.39237">
        <ele>3.02124</ele>
        <time>2014-08-18T09:13:14Z</time>
      </trkpt>
      <trkpt lat="46.18551" lon="-1.39236">
        <ele>3.501953</ele>
        <time>2014-08-18T09:13:35Z</time>
      </trkpt>
      <trkpt lat="46.18554" lon="-1.39246">
        <ele>2.540649</ele>
        <time>2014-08-18T09:13:50Z</time>
      </trkpt>
      <trkpt lat="46.18551" lon="-1.39254">
        <ele>3.02124</ele>
        <time>2014-08-18T09:14:18Z</time>
      </trkpt>
      <trkpt lat="46.18553" lon="-1.39249">
        <ele>3.501953</ele>
        <time>2014-08-18T09:14:51Z</time>
      </trkpt>
      <trkpt lat="46.18549" lon="-1.39249">
        <ele>3.982666</ele>
        <time>2014-08-18T09:15:11Z</time>
      </trkpt>
      <trkpt lat="46.18548" lon="-1.39268">
        <ele>3.982666</ele>
        <time>2014-08-18T09:15:53Z</time>
      </trkpt>
      <trkpt lat="46.18549" lon="-1.39264">
        <ele>3.982666</ele>
        <time>2014-08-18T09:16:21Z</time>
      </trkpt>
      <trkpt lat="46.18552" lon="-1.39262">
        <ele>3.982666</ele>
        <time>2014-08-18T09:16:49Z</time>
      </trkpt>
      <trkpt lat="46.18549" lon="-1.39263">
        <ele>3.501953</ele>
        <time>2014-08-18T09:17:10Z</time>
      </trkpt>
      <trkpt lat="46.18551" lon="-1.39262">
        <ele>4.463257</ele>
        <time>2014-08-18T09:17:47Z</time>
      </trkpt>
      <trkpt lat="46.18552" lon="-1.39263">
        <ele>4.943848</ele>
        <time>2014-08-18T09:18:49Z</time>
      </trkpt>
      <trkpt lat="46.18549" lon="-1.39263">
        <ele>4.463257</ele>
        <time>2014-08-18T09:19:20Z</time>
      </trkpt>
      <trkpt lat="46.18551" lon="-1.39263">
        <ele>4.943848</ele>
        <time>2014-08-18T09:19:39Z</time>
      </trkpt>
      <trkpt lat="46.18554" lon="-1.39259">
        <ele>5.905273</ele>
        <time>2014-08-18T09:20:38Z</time>
      </trkpt>
      <trkpt lat="46.18552" lon="-1.39263">
        <ele>5.424561</ele>
        <time>2014-08-18T09:21:04Z</time>
      </trkpt>
    </trkseg>
  </trk>
</gpx>